Time;durP1;ratioP1;P1;durP2;ratioP2;P2;SDS_P1;SDS_P2;PMS_P1;PMS_P2;Temp;Humidity;BMP_temperature;BMP_pressure;BME280_temperature;BME280_humidity;BME280_pressure;Samples;Min_cycle;Max_cycle;Signal;HPM_P1;HPM_P2
2023/08/27 00:01:21;;;;;;;6.72;4.20;;;;;;;19.52;58.24;96288.50;5033564;28;20077;-64
2023/08/27 00:03:50;;;;;;;4.82;3.83;;;;;;;19.43;58.83;96286.56;5034424;28;20055;-65
2023/08/27 00:06:17;;;;;;;9.40;4.82;;;;;;;19.35;59.55;96279.19;5051523;28;20041;-64
2023/08/27 00:08:44;;;;;;;6.13;4.82;;;;;;;19.29;60.14;96279.66;5042332;28;20163;-65
2023/08/27 00:11:11;;;;;;;8.52;5.05;;;;;;;19.25;60.30;96273.78;5053357;28;20044;-63
2023/08/27 00:13:38;;;;;;;8.52;4.63;;;;;;;19.23;60.06;96273.03;5038664;28;20160;-62
2023/08/27 00:16:06;;;;;;;9.48;4.82;;;;;;;19.17;60.10;96274.38;5033368;28;20068;-63
2023/08/27 00:18:33;;;;;;;7.93;4.55;;;;;;;19.13;60.46;96272.94;5033208;28;20045;-63
2023/08/27 00:21:03;;;;;;;5.97;4.25;;;;;;;19.10;60.29;96267.84;5032255;28;20089;-62
2023/08/27 00:23:31;;;;;;;6.55;4.13;;;;;;;19.15;60.00;96280.75;5033062;28;20049;-63
2023/08/27 00:25:58;;;;;;;6.93;4.20;;;;;;;19.18;60.09;96278.69;5048700;28;20055;-66
2023/08/27 00:28:28;;;;;;;6.10;3.95;;;;;;;19.16;60.24;96280.66;5052927;28;20053;-64
2023/08/27 00:31:03;;;;;;;8.25;3.63;;;;;;;19.11;60.11;96274.84;5052971;28;20041;-62
2023/08/27 00:33:30;;;;;;;5.47;3.65;;;;;;;19.06;59.63;96274.34;5052967;28;20076;-66
2023/08/27 00:35:58;;;;;;;4.65;3.90;;;;;;;19.05;60.24;96278.78;5053028;28;20159;-65
2023/08/27 00:38:26;;;;;;;5.88;3.97;;;;;;;18.95;60.06;96272.50;5050144;28;20053;-65
2023/08/27 00:40:53;;;;;;;6.68;3.83;;;;;;;18.90;60.33;96275.50;5032897;28;20057;-66
2023/08/27 00:43:20;;;;;;;4.82;3.83;;;;;;;18.85;59.87;96275.00;5032899;28;20053;-66
2023/08/27 00:45:47;;;;;;;4.80;3.97;;;;;;;18.76;61.08;96276.56;5034962;28;20045;-64
2023/08/27 00:48:14;;;;;;;4.07;3.63;;;;;;;18.44;62.28;96279.81;5033966;28;20454;-62
2023/08/27 00:50:41;;;;;;;4.25;3.70;;;;;;;18.31;62.71;96279.88;5032926;28;20052;-63
2023/08/27 00:53:08;;;;;;;5.32;3.90;;;;;;;18.41;62.37;96277.38;5032879;28;20046;-64
2023/08/27 00:55:38;;;;;;;5.40;4.00;;;;;;;18.49;62.68;96275.03;5032849;28;20081;-65
2023/08/27 00:58:05;;;;;;;5.70;4.35;;;;;;;18.58;62.45;96269.97;5043137;28;20041;-63
2023/08/27 01:00:33;;;;;;;5.28;4.35;;;;;;;18.55;62.10;96271.06;5052022;28;20081;-66
2023/08/27 01:03:00;;;;;;;5.00;3.58;;;;;;;18.57;61.97;96274.44;5052151;28;20522;-64
2023/08/27 01:05:27;;;;;;;5.15;3.60;;;;;;;18.61;61.63;96262.66;5047926;28;20051;-63
2023/08/27 01:08:00;;;;;;;3.80;3.42;;;;;;;18.64;61.28;96265.09;5033586;28;20060;-65
2023/08/27 01:10:36;;;;;;;4.78;3.88;;;;;;;18.67;61.50;96258.72;5052272;28;20529;-64
2023/08/27 01:13:07;;;;;;;5.47;3.75;;;;;;;18.65;61.64;96255.31;5039185;28;20045;-65
2023/08/27 01:15:35;;;;;;;4.38;3.80;;;;;;;18.64;61.45;96249.19;5046161;28;20519;-65
2023/08/27 01:18:04;;;;;;;5.32;3.78;;;;;;;18.64;61.74;96253.63;5050324;28;20041;-68
2023/08/27 01:20:32;;;;;;;7.90;3.88;;;;;;;18.55;61.43;96237.47;5052270;28;20084;-64
2023/08/27 01:23:01;;;;;;;5.40;3.60;;;;;;;18.48;61.55;96230.94;5052213;28;20045;-65
2023/08/27 01:25:37;;;;;;;6.20;3.95;;;;;;;18.52;61.34;96231.56;5039618;28;20038;-63
2023/08/27 01:28:13;;;;;;;3.97;3.58;;;;;;;18.44;60.46;96235.66;5033572;28;20045;-66
2023/08/27 01:30:50;;;;;;;7.07;3.85;;;;;;;18.47;60.10;96239.00;5032657;28;20050;-63
2023/08/27 01:33:22;;;;;;;4.25;3.85;;;;;;;18.52;61.08;96240.38;5050484;28;20049;-62
2023/08/27 01:35:50;;;;;;;4.97;3.75;;;;;;;18.42;61.38;96239.34;5036956;28;20050;-64
2023/08/27 01:38:19;;;;;;;5.22;3.25;;;;;;;18.33;61.64;96246.16;5047668;28;20144;-64
2023/08/27 01:40:46;;;;;;;5.15;3.97;;;;;;;18.29;61.83;96236.78;5055733;28;20063;-65
2023/08/27 01:43:13;;;;;;;8.35;3.60;;;;;;;18.24;61.18;96246.88;5046024;28;20495;-65
2023/08/27 01:45:46;;;;;;;5.25;3.88;;;;;;;18.29;61.72;96239.41;5035968;28;20107;-61
2023/08/27 01:48:13;;;;;;;4.05;3.65;;;;;;;18.31;61.59;96248.09;5035205;28;20049;-62
2023/08/27 01:50:40;;;;;;;5.57;3.78;;;;;;;18.33;61.71;96250.63;5037107;28;20049;-65
2023/08/27 01:53:07;;;;;;;6.68;3.47;;;;;;;18.37;61.58;96246.81;5035745;28;20447;-64
2023/08/27 01:55:38;;;;;;;4.57;3.50;;;;;;;18.39;61.81;96244.91;5035856;28;20120;-65
2023/08/27 01:58:05;;;;;;;5.00;3.90;;;;;;;18.36;61.89;96239.81;5036014;28;20051;-65
2023/08/27 02:00:32;;;;;;;3.78;3.47;;;;;;;18.42;61.76;96237.56;5036673;28;20488;-64
2023/08/27 02:02:59;;;;;;;5.43;3.92;;;;;;;18.37;61.76;96239.72;5035601;28;20044;-61
2023/08/27 02:05:26;;;;;;;3.78;3.20;;;;;;;18.32;62.21;96236.53;5035673;28;20136;-67
2023/08/27 02:07:53;;;;;;;4.18;3.67;;;;;;;18.27;62.77;96244.81;5035522;28;20140;-65
2023/08/27 02:10:20;;;;;;;4.70;3.85;;;;;;;18.23;62.48;96246.03;5048288;28;20098;-64
2023/08/27 02:12:49;;;;;;;3.47;3.17;;;;;;;18.23;62.09;96237.22;5044657;28;20053;-66
2023/08/27 02:15:16;;;;;;;4.07;3.15;;;;;;;18.24;62.29;96245.06;5055549;28;20084;-62
2023/08/27 02:17:43;;;;;;;4.10;3.60;;;;;;;18.27;61.70;96247.47;5039027;28;20132;-62
2023/08/27 02:20:11;;;;;;;4.57;3.60;;;;;;;18.30;62.12;96234.00;5035201;28;20041;-64
2023/08/27 02:22:38;;;;;;;6.95;3.50;;;;;;;18.35;62.41;96233.69;5035292;28;20128;-61
2023/08/27 02:25:06;;;;;;;5.00;3.42;;;;;;;18.30;62.00;96222.56;5035532;28;20085;-64
2023/08/27 02:27:33;;;;;;;5.88;4.10;;;;;;;18.29;61.88;96220.91;5035303;28;20049;-63
2023/08/27 02:30:02;;;;;;;4.13;3.58;;;;;;;18.27;62.08;96225.47;5052554;28;20080;-63
2023/08/27 02:32:29;;;;;;;4.80;3.67;;;;;;;18.23;62.17;96216.91;5055269;28;20095;-65
2023/08/27 02:34:56;;;;;;;5.38;3.60;;;;;;;18.24;62.19;96217.75;5055076;28;20135;-66
2023/08/27 02:37:23;;;;;;;4.38;3.97;;;;;;;18.21;62.52;96218.81;5055015;28;20045;-67
2023/08/27 02:39:50;;;;;;;4.38;3.78;;;;;;;18.22;62.62;96219.66;5054842;28;20052;-64
2023/08/27 02:42:17;;;;;;;5.88;3.92;;;;;;;18.07;62.40;96222.47;5036830;28;20046;-61
2023/08/27 02:44:44;;;;;;;5.63;3.90;;;;;;;18.03;62.80;96223.66;5034052;28;20046;-64
2023/08/27 02:47:13;;;;;;;4.47;3.58;;;;;;;17.94;63.07;96226.00;5034775;28;20041;-64
2023/08/27 02:49:40;;;;;;;4.28;3.88;;;;;;;17.88;62.75;96228.25;5034670;28;20046;-63
2023/08/27 02:52:07;;;;;;;4.65;4.25;;;;;;;17.86;63.24;96224.88;5034999;28;20038;-64
2023/08/27 02:54:34;;;;;;;5.15;3.63;;;;;;;17.85;63.45;96225.84;5035371;28;20041;-64
2023/08/27 02:57:01;;;;;;;5.20;3.85;;;;;;;17.83;63.29;96223.31;5034816;28;20050;-63
2023/08/27 02:59:28;;;;;;;5.93;4.05;;;;;;;17.79;63.15;96227.97;5034708;28;20498;-62
2023/08/27 03:01:55;;;;;;;4.13;3.72;;;;;;;17.79;63.55;96224.47;5051541;28;20099;-62
2023/08/27 03:04:24;;;;;;;5.78;4.03;;;;;;;17.78;63.70;96226.28;5052359;28;20041;-61
2023/08/27 03:06:50;;;;;;;4.45;3.97;;;;;;;17.75;63.83;96228.28;5049257;28;20045;-64
2023/08/27 03:09:17;;;;;;;5.18;4.30;;;;;;;17.74;63.69;96223.97;5034419;28;20080;-63
2023/08/27 03:11:44;;;;;;;4.80;3.97;;;;;;;17.73;64.07;96224.94;5053515;28;20124;-64
2023/08/27 03:14:11;;;;;;;4.68;4.22;;;;;;;17.74;63.93;96222.16;5050661;28;20041;-62
2023/08/27 03:16:40;;;;;;;6.70;4.68;;;;;;;17.72;64.07;96212.63;5053877;28;20049;-62
2023/08/27 03:19:07;;;;;;;5.28;4.00;;;;;;;17.66;64.42;96217.44;5053988;28;20040;-66
2023/08/27 03:21:35;;;;;;;5.03;4.57;;;;;;;17.61;64.44;96218.72;5044711;28;20046;-63
2023/08/27 03:24:02;;;;;;;5.78;4.63;;;;;;;17.55;64.68;96220.00;5052265;28;20099;-63
2023/08/27 03:26:29;;;;;;;3.92;3.58;;;;;;;17.51;64.90;96221.16;5034017;28;20132;-64
2023/08/27 03:28:57;;;;;;;5.78;4.35;;;;;;;17.48;64.96;96214.28;5034304;28;20045;-63
2023/08/27 03:31:24;;;;;;;5.20;4.22;;;;;;;17.45;64.71;96203.94;5034025;28;20492;-65
2023/08/27 03:33:51;;;;;;;5.38;4.88;;;;;;;17.38;65.17;96203.53;5034196;28;20060;-66
2023/08/27 03:36:18;;;;;;;5.80;4.68;;;;;;;17.32;65.92;96206.63;5039647;28;20045;-68
2023/08/27 03:38:46;;;;;;;6.05;4.70;;;;;;;17.30;66.13;96212.00;5053803;28;20487;-70
2023/08/27 03:41:14;;;;;;;7.93;5.18;;;;;;;17.26;66.30;96215.84;5053907;28;20041;-66
2023/08/27 03:43:41;;;;;;;5.70;4.60;;;;;;;17.25;66.62;96216.75;5039920;28;20099;-67
2023/08/27 03:46:08;;;;;;;8.23;4.63;;;;;;;17.23;66.50;96213.41;5035850;28;20049;-67
2023/08/27 03:48:35;;;;;;;6.93;4.68;;;;;;;17.23;66.73;96213.41;5035797;28;20061;-68
2023/08/27 03:51:02;;;;;;;5.75;5.07;;;;;;;17.25;66.79;96214.13;5053881;28;20054;-68
2023/08/27 03:53:29;;;;;;;5.93;4.65;;;;;;;17.24;67.08;96211.59;5035307;28;20045;-67
2023/08/27 03:55:57;;;;;;;8.23;4.97;;;;;;;17.20;67.08;96210.97;5034649;28;20042;-68
2023/08/27 03:58:24;;;;;;;7.97;5.30;;;;;;;17.18;67.35;96204.94;5033466;28;20048;-65
2023/08/27 04:00:51;;;;;;;5.18;4.70;;;;;;;17.14;67.36;96201.69;5033454;28;20514;-68
2023/08/27 04:03:19;;;;;;;6.95;4.90;;;;;;;17.13;67.40;96205.25;5033406;28;20514;-67
2023/08/27 04:05:49;;;;;;;8.38;5.72;;;;;;;17.18;67.46;96205.78;5033382;28;20053;-65
2023/08/27 04:08:16;;;;;;;5.80;5.20;;;;;;;17.26;67.77;96212.34;5045265;28;20132;-67
2023/08/27 04:10:49;;;;;;;11.73;5.25;;;;;;;17.29;67.71;96212.97;5033286;28;20049;-70
2023/08/27 04:13:18;;;;;;;5.88;4.95;;;;;;;17.36;67.93;96207.22;5041798;28;20098;-67
2023/08/27 04:15:47;;;;;;;9.77;5.15;;;;;;;17.53;67.39;96211.31;5053075;28;20049;-67
2023/08/27 04:18:14;;;;;;;6.78;4.97;;;;;;;17.77;66.68;96216.66;5053526;28;20049;-68
2023/08/27 04:20:41;;;;;;;6.50;4.40;;;;;;;18.10;65.85;96216.97;5053004;28;20049;-67
2023/08/27 04:23:08;;;;;;;6.93;5.03;;;;;;;18.51;64.54;96214.81;5053350;28;20059;-66
2023/08/27 04:25:36;;;;;;;5.05;4.55;;;;;;;18.92;63.50;96219.72;5043192;28;20426;-64
2023/08/27 04:28:03;;;;;;;8.35;4.63;;;;;;;19.40;62.12;96229.31;5033070;28;20430;-68
2023/08/27 04:30:33;;;;;;;4.43;4.03;;;;;;;19.99;60.37;96236.22;5032953;28;20080;-68
2023/08/27 04:33:00;;;;;;;6.20;4.32;;;;;;;20.50;58.25;96236.56;5033156;28;20057;-68
2023/08/27 04:35:27;;;;;;;5.63;4.38;;;;;;;20.89;56.87;96238.63;5032931;28;20054;-67
2023/08/27 04:37:54;;;;;;;7.13;4.05;;;;;;;21.29;55.83;96242.38;5045002;28;20045;-67
2023/08/27 04:40:21;;;;;;;6.78;4.20;;;;;;;21.71;54.88;96239.56;5037045;28;20095;-67
2023/08/27 04:42:48;;;;;;;6.65;3.90;;;;;;;22.19;53.23;96244.34;5039716;28;20060;-67
2023/08/27 04:45:15;;;;;;;8.93;4.55;;;;;;;22.63;52.58;96243.13;5052751;28;20053;-65
2023/08/27 04:47:44;;;;;;;14.25;4.32;;;;;;;23.01;51.37;96245.84;5052586;28;20045;-65
2023/08/27 04:50:11;;;;;;;9.43;4.25;;;;;;;23.44;50.01;96240.97;5053003;28;20049;-67
2023/08/27 04:52:38;;;;;;;5.88;3.63;;;;;;;23.85;49.55;96249.50;5052723;28;20053;-68
2023/08/27 04:55:06;;;;;;;7.70;3.80;;;;;;;24.20;48.62;96254.25;5052989;28;20041;-68
2023/08/27 04:57:34;;;;;;;4.40;4.00;;;;;;;24.57;47.59;96253.28;5050918;28;20051;-70
2023/08/27 05:00:04;;;;;;;7.68;4.32;;;;;;;24.98;47.24;96246.56;5052923;28;20108;-67
2023/08/27 05:02:32;;;;;;;6.13;3.90;;;;;;;25.36;46.90;96244.47;5052658;28;20049;-67
2023/08/27 05:05:01;;;;;;;4.75;3.83;;;;;;;25.74;45.52;96256.75;5052638;28;20136;-66
2023/08/27 05:07:29;;;;;;;6.45;3.92;;;;;;;26.09;44.91;96256.66;5053112;28;20049;-68
2023/08/27 05:09:56;;;;;;;4.10;3.67;;;;;;;26.47;44.79;96250.91;5049225;28;20129;-67
2023/08/27 05:12:23;;;;;;;5.15;3.85;;;;;;;26.92;43.92;96258.63;5036281;28;20045;-67
2023/08/27 05:14:50;;;;;;;5.85;4.05;;;;;;;27.31;43.16;96260.63;5038913;28;20049;-66
2023/08/27 05:17:17;;;;;;;3.60;3.30;;;;;;;27.68;42.50;96254.84;5037153;28;20048;-65
2023/08/27 05:19:45;;;;;;;4.65;3.88;;;;;;;28.09;41.35;96254.66;5056433;28;20045;-66
2023/08/27 05:22:14;;;;;;;4.45;3.45;;;;;;;28.55;40.68;96246.81;5040766;28;20053;-67
2023/08/27 05:24:41;;;;;;;5.07;3.40;;;;;;;28.84;39.42;96243.38;5050764;28;20454;-66
2023/08/27 05:27:08;;;;;;;3.67;2.92;;;;;;;29.22;39.98;96245.25;5036511;28;20049;-68
2023/08/27 05:29:35;;;;;;;5.03;3.53;;;;;;;29.60;39.90;96248.94;5036398;28;20060;-66
2023/08/27 05:32:04;;;;;;;4.15;3.67;;;;;;;29.87;38.81;96254.66;5046126;28;20095;-67
2023/08/27 05:34:32;;;;;;;6.80;3.92;;;;;;;30.13;36.49;96258.72;5056377;28;20045;-68
2023/08/27 05:37:00;;;;;;;5.20;3.80;;;;;;;30.42;35.89;96251.59;5050197;28;20046;-67
2023/08/27 05:39:29;;;;;;;5.80;3.40;;;;;;;30.69;37.04;96253.69;5036082;28;20096;-67
2023/08/27 05:41:59;;;;;;;7.85;3.28;;;;;;;31.02;37.93;96258.59;5036311;28;20067;-67
2023/08/27 05:44:27;;;;;;;5.15;3.78;;;;;;;31.18;36.34;96260.16;5036146;28;20049;-66
2023/08/27 05:46:54;;;;;;;13.40;4.13;;;;;;;31.46;36.35;96259.34;5036141;28;20124;-67
2023/08/27 05:49:21;;;;;;;32.90;4.63;;;;;;;31.75;35.24;96260.13;5046383;28;20049;-67
2023/08/27 05:51:49;;;;;;;26.23;4.72;;;;;;;32.00;34.51;96258.81;5056089;28;20053;-67
2023/08/27 05:54:16;;;;;;;13.15;4.50;;;;;;;32.25;33.84;96269.09;5055894;28;20395;-68
2023/08/27 05:56:45;;;;;;;6.18;3.97;;;;;;;32.34;32.59;96264.31;5055707;28;20474;-68
2023/08/27 05:59:14;;;;;;;4.38;3.50;;;;;;;32.45;33.67;96265.59;5053986;28;20056;-68
2023/08/27 06:01:41;;;;;;;4.25;3.53;;;;;;;32.50;32.36;96265.84;5055696;28;20055;-67
2023/08/27 06:04:09;;;;;;;3.70;3.20;;;;;;;32.44;34.22;96262.06;5055364;28;20068;-68
2023/08/27 06:06:38;;;;;;;5.43;2.95;;;;;;;32.71;33.89;96259.44;5055666;28;20486;-68
2023/08/27 06:09:05;;;;;;;4.40;3.40;;;;;;;32.89;33.43;96248.00;5054361;28;20119;-67
2023/08/27 06:11:33;;;;;;;5.85;3.92;;;;;;;33.01;34.34;96252.78;5055220;28;20041;-67
2023/08/27 06:14:02;;;;;;;7.15;3.30;;;;;;;33.16;33.45;96249.88;5055700;28;20049;-67
2023/08/27 06:16:29;;;;;;;8.77;3.35;;;;;;;32.80;32.80;96262.75;5055439;28;20045;-67
2023/08/27 06:18:56;;;;;;;3.80;3.38;;;;;;;32.74;33.94;96258.16;5054210;28;20128;-67
2023/08/27 06:21:24;;;;;;;3.45;3.10;;;;;;;32.83;33.91;96256.94;5039420;28;20128;-68
2023/08/27 06:23:52;;;;;;;4.35;3.60;;;;;;;32.87;33.88;96251.97;5035405;28;20049;-68
2023/08/27 06:26:21;;;;;;;6.88;3.22;;;;;;;32.95;33.79;96254.44;5035246;28;20057;-67
2023/08/27 06:28:49;;;;;;;6.13;3.55;;;;;;;33.05;32.59;96248.66;5035234;28;20049;-68
2023/08/27 06:31:17;;;;;;;5.75;3.30;;;;;;;33.09;32.30;96244.47;5035304;28;20057;-68
2023/08/27 06:33:45;;;;;;;6.07;3.30;;;;;;;33.20;32.85;96243.00;5035176;28;20109;-68
2023/08/27 06:36:12;;;;;;;8.40;3.75;;;;;;;33.44;31.71;96246.09;5035172;28;20045;-68
2023/08/27 06:38:39;;;;;;;4.05;3.13;;;;;;;33.55;31.55;96249.22;5036042;28;20055;-68
2023/08/27 06:41:06;;;;;;;5.80;4.22;;;;;;;33.73;31.64;96257.50;5035054;28;20100;-68
2023/08/27 06:43:33;;;;;;;4.18;3.30;;;;;;;33.99;31.04;96250.34;5034992;28;20049;-68
2023/08/27 06:46:00;;;;;;;5.55;3.50;;;;;;;34.16;31.20;96255.31;5034995;28;20139;-67
2023/08/27 06:48:29;;;;;;;4.47;3.50;;;;;;;34.25;30.12;96256.69;5034973;28;20042;-68
2023/08/27 06:50:56;;;;;;;7.57;3.65;;;;;;;34.23;30.80;96261.53;5052714;28;20190;-68
2023/08/27 06:53:23;;;;;;;8.48;3.60;;;;;;;34.43;30.17;96262.47;5054769;28;20045;-67
2023/08/27 06:55:50;;;;;;;5.15;3.47;;;;;;;34.60;29.77;96265.47;5054774;28;20057;-67
2023/08/27 06:58:18;;;;;;;5.55;3.75;;;;;;;34.68;29.67;96267.97;5052145;28;20048;-67
2023/08/27 07:00:46;;;;;;;5.65;4.03;;;;;;;34.76;29.48;96258.72;5034860;28;20129;-67
2023/08/27 07:03:14;;;;;;;4.32;3.45;;;;;;;34.72;28.11;96260.19;5040533;28;20128;-67
2023/08/27 07:05:43;;;;;;;7.78;3.53;;;;;;;34.64;28.33;96264.81;5054549;28;20055;-67
2023/08/27 07:08:11;;;;;;;4.38;3.50;;;;;;;34.75;27.82;96255.19;5054705;28;20400;-68
2023/08/27 07:10:38;;;;;;;7.53;3.45;;;;;;;34.98;28.15;96248.31;5054736;28;20127;-67
2023/08/27 07:13:05;;;;;;;7.35;4.45;;;;;;;35.03;27.17;96248.47;5054029;28;20411;-67
2023/08/27 07:15:33;;;;;;;4.00;3.22;;;;;;;34.98;27.17;96255.63;5054343;28;20041;-68
2023/08/27 07:18:01;;;;;;;4.47;3.40;;;;;;;35.01;28.30;96249.75;5054089;28;20139;-67
2023/08/27 07:20:29;;;;;;;6.18;3.60;;;;;;;34.99;27.56;96249.13;5053764;28;20048;-67
2023/08/27 07:22:58;;;;;;;7.53;3.70;;;;;;;35.25;27.84;96242.69;5050919;28;20515;-67
2023/08/27 07:25:25;;;;;;;3.88;3.55;;;;;;;35.23;28.03;96249.38;5053773;28;20049;-67
2023/08/27 07:27:53;;;;;;;4.10;3.50;;;;;;;35.02;27.46;96248.69;5053210;28;20055;-68
2023/08/27 07:30:20;;;;;;;7.85;3.90;;;;;;;34.62;28.71;96241.66;5046404;28;20038;-67
2023/08/27 07:32:48;;;;;;;4.43;3.53;;;;;;;34.14;30.02;96235.69;5043781;28;20044;-67
2023/08/27 07:35:15;;;;;;;8.23;3.50;;;;;;;34.09;29.72;96232.75;5053778;28;20491;-67
2023/08/27 07:37:42;;;;;;;3.95;3.20;;;;;;;33.97;29.43;96238.03;5053349;28;20055;-68
2023/08/27 07:40:12;;;;;;;5.88;3.65;;;;;;;34.15;29.02;96238.19;5051735;28;20136;-68
2023/08/27 07:42:40;;;;;;;5.65;3.80;;;;;;;34.35;28.69;96242.69;5033641;28;20053;-68
2023/08/27 07:45:08;;;;;;;4.25;3.28;;;;;;;34.53;29.95;96241.91;5039606;28;20052;-70
2023/08/27 07:47:36;;;;;;;5.05;3.50;;;;;;;34.75;32.75;96232.63;5053826;28;20386;-69
2023/08/27 07:50:04;;;;;;;4.55;3.38;;;;;;;34.79;33.97;96226.53;5053771;28;20482;-68
2023/08/27 07:52:33;;;;;;;7.32;3.85;;;;;;;34.86;33.60;96229.19;5049789;28;20079;-69
2023/08/27 07:55:03;;;;;;;9.07;3.97;;;;;;;34.92;32.26;96228.28;5053232;28;20055;-70
2023/08/27 07:57:31;;;;;;;7.28;3.65;;;;;;;35.11;31.22;96230.22;5053400;28;20045;-70
2023/08/27 07:59:58;;;;;;;7.65;3.53;;;;;;;35.20;31.80;96222.66;5037525;28;20067;-70
2023/08/27 08:02:25;;;;;;;6.10;3.58;;;;;;;35.11;32.89;96217.47;5034422;28;20046;-67
2023/08/27 08:04:53;;;;;;;7.50;3.80;;;;;;;35.25;33.34;96220.09;5033285;28;20407;-67
2023/08/27 08:07:20;;;;;;;8.20;3.45;;;;;;;35.07;34.41;96213.56;5033363;28;20467;-67
2023/08/27 08:09:47;;;;;;;6.72;3.40;;;;;;;34.85;34.07;96213.13;5033527;28;20120;-67
2023/08/27 08:12:15;;;;;;;10.10;3.45;;;;;;;34.89;34.91;96219.78;5042206;28;20037;-67
2023/08/27 08:14:44;;;;;;;8.27;3.40;;;;;;;35.10;33.91;96215.00;5052400;28;20534;-67
2023/08/27 08:17:11;;;;;;;5.80;3.95;;;;;;;35.13;33.46;96220.81;5053085;28;20072;-67
2023/08/27 08:19:39;;;;;;;6.25;3.85;;;;;;;35.25;33.23;96218.22;5053185;28;20045;-68
2023/08/27 08:22:06;;;;;;;10.15;4.00;;;;;;;35.32;33.66;96215.44;5052761;28;20055;-67
2023/08/27 08:24:34;;;;;;;5.38;3.30;;;;;;;35.34;33.49;96217.94;5053009;28;20151;-67
2023/08/27 08:27:02;;;;;;;6.95;3.88;;;;;;;35.14;33.42;96214.31;5043512;28;20053;-67
2023/08/27 08:29:29;;;;;;;7.03;3.50;;;;;;;35.15;33.77;96215.13;5034249;28;20049;-67
2023/08/27 08:31:58;;;;;;;5.30;3.35;;;;;;;35.05;33.71;96204.78;5034734;28;20117;-67
2023/08/27 08:34:27;;;;;;;5.03;3.90;;;;;;;34.65;33.38;96197.78;5038589;28;20399;-67
2023/08/27 08:36:54;;;;;;;5.57;3.47;;;;;;;34.78;33.85;96203.16;5039055;28;20116;-67
2023/08/27 08:39:22;;;;;;;5.63;3.40;;;;;;;34.79;33.96;96210.22;5033121;28;20125;-67
2023/08/27 08:41:58;;;;;;;8.13;3.83;;;;;;;34.72;34.48;96204.03;5032498;28;20053;-67
2023/08/27 08:44:33;;;;;;;4.45;3.45;;;;;;;34.28;33.74;96193.88;5033095;28;20050;-67
2023/08/27 08:47:03;;;;;;;9.00;3.38;;;;;;;34.31;33.72;96203.44;5040649;28;20048;-67
2023/08/27 08:49:33;;;;;;;4.65;3.63;;;;;;;33.84;34.12;96196.38;5052919;28;20202;-67
2023/08/27 08:52:01;;;;;;;;;;;;;;;33.37;35.08;96213.59;5053639;28;20053;-67
2023/08/27 08:54:29;;;;;;;6.97;3.40;;;;;;;33.25;35.38;96209.84;5053115;28;19921;-67
2023/08/27 08:57:01;;;;;;;6.53;3.40;;;;;;;33.25;35.01;96201.72;5051051;28;20080;-67
2023/08/27 08:59:30;;;;;;;5.50;2.90;;;;;;;33.19;33.77;96210.72;5052802;28;20132;-66
2023/08/27 09:01:59;;;;;;;6.60;3.22;;;;;;;32.67;35.63;96198.63;5052725;28;20051;-66
2023/08/27 09:04:29;;;;;;;5.95;2.95;;;;;;;32.03;35.49;96204.34;5052710;28;20053;-66
2023/08/27 09:06:56;;;;;;;5.25;3.47;;;;;;;31.75;35.89;96197.97;5052303;28;20045;-66
2023/08/27 09:09:24;;;;;;;6.32;3.38;;;;;;;31.59;36.12;96187.50;5033635;28;20411;-65
2023/08/27 09:11:53;;;;;;;4.25;3.38;;;;;;;31.83;35.67;96191.56;5032634;28;20563;-66
2023/08/27 09:14:22;;;;;;;4.85;3.50;;;;;;;32.18;35.20;96193.34;5032771;28;20107;-66
2023/08/27 09:16:49;;;;;;;12.87;4.73;;;;;;;31.93;33.36;96190.38;5032950;28;20049;-64
2023/08/27 09:19:16;;;;;;;55.75;9.82;;;;;;;31.85;34.96;96184.09;5047894;28;20286;-67
2023/08/27 09:21:46;;;;;;;13.52;5.70;;;;;;;31.84;32.99;96179.69;5052580;28;20048;-66
2023/08/27 09:24:13;;;;;;;37.42;7.38;;;;;;;31.87;34.98;96178.44;5052727;28;20048;-66
2023/08/27 09:26:41;;;;;;;13.85;5.72;;;;;;;32.32;33.45;96174.44;5052726;28;20045;-66
2023/08/27 09:29:09;;;;;;;8.80;4.32;;;;;;;32.72;31.08;96182.59;5041617;28;20050;-67
2023/08/27 09:31:38;;;;;;;5.43;3.30;;;;;;;32.49;32.30;96175.75;5032552;28;20417;-65
2023/08/27 09:34:06;;;;;;;10.32;3.72;;;;;;;32.69;32.41;96169.50;5032647;28;20530;-66
2023/08/27 09:36:33;;;;;;;9.07;3.33;;;;;;;32.76;31.11;96164.91;5032482;28;20460;-65
2023/08/27 09:39:08;;;;;;;6.80;3.80;;;;;;;32.45;31.81;96168.22;5032474;28;20049;-66
2023/08/27 09:41:39;;;;;;;7.20;3.25;;;;;;;32.01;32.54;96171.25;5032743;28;20138;-66
2023/08/27 09:44:07;;;;;;;5.82;3.50;;;;;;;32.21;32.29;96170.47;5032528;28;20731;-66
2023/08/27 09:46:35;;;;;;;9.32;3.45;;;;;;;32.23;32.07;96174.63;5032575;28;20487;-65
2023/08/27 09:49:05;;;;;;;4.07;3.17;;;;;;;32.07;31.44;96167.72;5032715;28;20053;-66
2023/08/27 09:51:33;;;;;;;6.80;3.40;;;;;;;31.96;30.53;96166.44;5032421;28;20041;-65
2023/08/27 09:54:01;;;;;;;6.65;3.13;;;;;;;31.46;30.52;96162.09;5035463;28;20053;-65
2023/08/27 09:56:30;;;;;;;4.13;3.08;;;;;;;31.34;31.43;96166.38;5036404;28;20046;-65
2023/08/27 09:59:08;;;;;;;7.87;3.10;;;;;;;31.29;31.47;96161.56;5035907;28;20080;-66
2023/08/27 10:01:36;;;;;;;3.53;2.53;;;;;;;31.44;29.48;96161.47;5035862;28;20318;-65
2023/08/27 10:04:07;;;;;;;5.18;3.17;;;;;;;31.40;29.83;96157.50;5035724;28;20041;-66
2023/08/27 10:06:38;;;;;;;3.30;2.80;;;;;;;31.19;27.41;96161.09;5035626;28;20049;-65
2023/08/27 10:09:06;;;;;;;5.63;3.67;;;;;;;31.26;28.57;96149.28;5047979;28;20056;-66
2023/08/27 10:11:36;;;;;;;4.22;3.10;;;;;;;31.46;28.06;96153.16;5055555;28;20088;-65
2023/08/27 10:14:07;;;;;;;4.55;3.17;;;;;;;31.62;27.14;96157.38;5055585;28;20041;-65
2023/08/27 10:16:36;;;;;;;5.63;3.05;;;;;;;31.72;27.34;96144.31;5055556;28;20071;-66
2023/08/27 10:19:05;;;;;;;5.60;3.20;;;;;;;31.81;26.18;96144.97;5046264;28;20104;-66
2023/08/27 10:21:33;;;;;;;5.78;2.90;;;;;;;31.62;26.60;96151.97;5035360;28;20053;-65
2023/08/27 10:24:04;;;;;;;4.75;2.95;;;;;;;31.17;26.48;96139.69;5035797;28;20092;-65
2023/08/27 10:26:31;;;;;;;;;;;;;;;31.23;26.30;96138.88;5035885;28;20064;-65
2023/08/27 10:29:00;;;;;;;9.20;3.35;;;;;;;31.28;27.49;96131.00;5040001;28;19927;-66
2023/08/27 10:31:28;;;;;;;4.88;3.25;;;;;;;31.11;26.88;96133.22;5055128;28;20609;-66
2023/08/27 10:33:55;;;;;;;6.20;2.90;;;;;;;31.10;27.09;96128.84;5055088;28;20513;-65
2023/08/27 10:36:29;;;;;;;8.88;2.53;;;;;;;31.13;27.36;96135.72;5055155;28;20053;-66
2023/08/27 10:38:58;;;;;;;7.32;2.92;;;;;;;31.23;26.75;96119.97;5054772;28;20407;-66
2023/08/27 10:41:27;;;;;;;4.63;2.83;;;;;;;31.46;26.17;96120.72;5055185;28;20102;-66
2023/08/27 10:43:54;;;;;;;4.20;2.25;;;;;;;31.54;25.73;96117.03;5055091;28;20045;-67
2023/08/27 10:46:26;;;;;;;2.72;2.53;;;;;;;31.81;25.94;96117.94;5055166;28;20191;-67
2023/08/27 10:48:54;;;;;;;4.45;2.75;;;;;;;31.84;25.62;96122.13;5040620;28;20057;-67
2023/08/27 10:51:28;;;;;;;5.47;2.63;;;;;;;31.99;25.97;96116.56;5035186;28;20133;-67
2023/08/27 10:54:00;;;;;;;4.90;2.45;;;;;;;31.84;25.15;96112.13;5035051;28;20049;-67
2023/08/27 10:56:29;;;;;;;8.93;2.78;;;;;;;31.97;26.24;96124.88;5034862;28;20133;-67
2023/08/27 10:59:01;;;;;;;5.63;2.58;;;;;;;32.01;24.06;96123.44;5046249;28;20053;-67
2023/08/27 11:01:29;;;;;;;4.55;2.78;;;;;;;32.09;24.80;96113.44;5054692;28;20076;-67
2023/08/27 11:03:59;;;;;;;4.78;2.58;;;;;;;32.21;25.13;96125.34;5054033;28;20045;-67
2023/08/27 11:06:45;;;;;;;4.07;2.45;;;;;;;32.20;24.19;96118.25;5054669;28;20048;-67
2023/08/27 11:09:17;;;;;;;4.22;2.28;;;;;;;31.92;23.25;96113.84;5043715;28;20088;-66
2023/08/27 11:11:50;;;;;;;4.93;2.30;;;;;;;32.01;23.16;96103.66;5034588;28;20056;-66
2023/08/27 11:14:19;;;;;;;8.32;2.38;;;;;;;32.15;22.76;96097.22;5034712;28;20440;-66
2023/08/27 11:16:56;;;;;;;2.88;1.75;;;;;;;32.17;23.02;96088.91;5034640;28;20119;-66
2023/08/27 11:19:29;;;;;;;3.88;2.45;;;;;;;32.10;23.91;96099.72;5043204;28;20193;-66
2023/08/27 11:22:06;;;;;;;3.80;2.78;;;;;;;31.97;23.39;96100.56;5054345;28;20116;-66
2023/08/27 11:24:34;;;;;;;3.45;2.70;;;;;;;31.75;24.22;96097.13;5054127;28;20045;-66
2023/08/27 11:27:02;;;;;;;5.10;3.17;;;;;;;31.75;24.11;96089.84;5053945;28;20520;-66
2023/08/27 11:29:30;;;;;;;4.10;2.60;;;;;;;31.84;24.38;96073.47;5054437;28;20076;-66
2023/08/27 11:32:03;;;;;;;4.38;2.75;;;;;;;32.08;24.04;96072.06;5053590;28;20474;-66
2023/08/27 11:34:35;;;;;;;4.03;2.50;;;;;;;32.12;24.82;96083.28;5050563;28;20128;-66
2023/08/27 11:37:04;;;;;;;5.78;2.58;;;;;;;32.12;24.76;96076.00;5035077;28;20597;-66
2023/08/27 11:39:31;;;;;;;3.42;2.30;;;;;;;32.08;24.45;96084.75;5053146;28;20076;-66